createdAt,value
2022-10-19T00:02:30.775Z,15.47
2022-10-19T00:05:19.967Z,10.93
2022-10-19T00:08:08.810Z,11.87
2022-10-19T00:13:50.435Z,12.27
2022-10-19T00:19:24.003Z,17.03
2022-10-19T00:22:14.059Z,13.43
2022-10-19T00:27:49.468Z,9.40
2022-10-19T00:30:38.781Z,13.43
2022-10-19T00:36:18.592Z,15.23
2022-10-19T00:41:55.652Z,12.60
2022-10-19T00:47:54.274Z,12.30
2022-10-19T00:50:43.886Z,15.37
2022-10-19T00:56:18.116Z,12.37
2022-10-19T01:01:47.811Z,13.47
2022-10-19T01:04:38.170Z,10.90
2022-10-19T01:07:27.646Z,12.50
2022-10-19T01:10:17.091Z,11.53
2022-10-19T01:16:09.968Z,9.53
2022-10-19T01:21:54.536Z,18.57
2022-10-19T01:28:04.946Z,19.93
2022-10-19T01:33:43.368Z,15.10
2022-10-19T01:42:09.512Z,15.10
2022-10-19T01:47:47.314Z,13.70
2022-10-19T01:50:38.254Z,15.10
2022-10-19T01:53:28.927Z,18.23
2022-10-19T01:59:09.979Z,16.33
2022-10-19T02:04:50.306Z,16.83
2022-10-19T02:10:29.144Z,13.93
2022-10-19T02:13:17.773Z,15.23
2022-10-19T02:19:00.574Z,22.23
2022-10-19T02:21:50.019Z,13.70
2022-10-19T02:27:32.705Z,14.60
2022-10-19T02:30:22.773Z,23.70
2022-10-19T02:36:06.841Z,16.83
2022-10-19T02:38:55.934Z,17.53
2022-10-19T02:44:37.257Z,15.83
2022-10-19T02:50:16.366Z,23.77
2022-10-19T02:55:52.741Z,13.70
2022-10-19T02:58:40.899Z,18.23
2022-10-19T03:04:14.305Z,22.27
2022-10-19T03:10:00.908Z,16.40
2022-10-19T03:15:35.650Z,26.83
2022-10-19T03:18:24.052Z,21.83
2022-10-19T03:21:15.468Z,22.40
2022-10-19T03:26:48.758Z,17.67
2022-10-19T03:29:38.568Z,20.27
2022-10-19T03:35:20.224Z,19.83
2022-10-19T03:43:49.042Z,26.07
2022-10-19T03:49:40.223Z,27.13
2022-10-19T03:52:27.818Z,21.77
2022-10-19T03:55:16.296Z,21.03
2022-10-19T04:03:38.358Z,24.40
2022-10-19T04:09:17.460Z,29.00
2022-10-19T04:12:09.640Z,24.43
2022-10-19T04:17:48.526Z,22.93
2022-10-19T04:23:29.668Z,19.47
2022-10-19T04:26:18.272Z,22.87
2022-10-19T04:34:45.866Z,24.37
2022-10-19T04:40:23.466Z,30.43
2022-10-19T04:43:11.646Z,32.87
2022-10-19T04:46:03.982Z,29.53
2022-10-19T04:48:54.149Z,31.20
2022-10-19T04:54:30.966Z,32.63
2022-10-19T05:00:01.392Z,33.67
2022-10-19T05:19:57.978Z,36.73
2022-10-19T05:36:57.303Z,32.00
2022-10-19T05:43:34.598Z,33.60
2022-10-19T05:54:55.797Z,29.20
2022-10-19T06:05:18.284Z,28.30
2022-10-19T06:10:49.435Z,27.60
2022-10-19T06:16:26.364Z,24.73
2022-10-19T06:22:05.783Z,25.50
2022-10-19T06:27:39.000Z,27.43
2022-10-19T06:30:27.484Z,27.97
2022-10-19T06:36:10.362Z,32.47
2022-10-19T06:41:46.039Z,32.57
2022-10-19T06:47:30.276Z,28.33
2022-10-19T06:50:18.780Z,42.90
2022-10-19T06:55:48.169Z,29.73
2022-10-19T07:01:29.124Z,28.13
2022-10-19T07:04:18.075Z,26.97
2022-10-19T07:09:55.073Z,25.43
2022-10-19T07:15:30.168Z,23.93
2022-10-19T07:18:21.126Z,24.43
2022-10-19T07:21:10.846Z,22.37
2022-10-19T07:26:48.203Z,22.53
2022-10-19T07:32:32.541Z,21.77
2022-10-19T07:38:12.389Z,21.87
2022-10-19T07:43:55.697Z,22.30
2022-10-19T07:49:45.385Z,19.87
2022-10-19T07:52:36.764Z,24.40
2022-10-19T07:58:10.606Z,24.30
2022-10-19T08:14:57.302Z,21.73
2022-10-19T08:20:32.442Z,21.23
2022-10-19T08:23:22.850Z,24.10
2022-10-19T08:28:54.828Z,25.07
2022-10-19T08:31:43.844Z,22.57
2022-10-19T08:37:40.157Z,26.30
2022-10-19T08:43:13.375Z,22.40
2022-10-19T08:46:05.592Z,22.30
2022-10-19T08:48:56.459Z,20.00
2022-10-19T08:54:28.705Z,23.47
2022-10-19T08:57:24.666Z,22.63
2022-10-19T09:03:00.582Z,23.03
2022-10-19T09:08:36.116Z,19.80
2022-10-19T09:14:16.338Z,20.67
2022-10-19T09:19:55.906Z,25.10
2022-10-19T09:25:35.768Z,22.80
2022-10-19T09:31:06.906Z,20.67
2022-10-19T09:36:50.652Z,18.50
2022-10-19T09:39:35.317Z,19.97
2022-10-19T09:45:21.194Z,22.07
2022-10-19T09:51:16.264Z,23.03
2022-10-19T09:56:55.709Z,19.43
2022-10-19T09:59:44.704Z,17.67
2022-10-19T10:02:34.939Z,20.07
2022-10-19T10:08:28.139Z,26.40
2022-10-19T10:11:19.098Z,21.77
2022-10-19T10:16:57.306Z,23.33
2022-10-19T10:19:53.845Z,27.37
2022-10-19T10:25:36.057Z,20.73
2022-10-19T10:34:11.155Z,19.70
2022-10-19T10:39:47.670Z,17.17
2022-10-19T10:45:34.156Z,21.50
2022-10-19T10:51:23.570Z,20.33
2022-10-19T10:54:23.804Z,17.70
2022-10-19T11:00:16.481Z,16.37
2022-10-19T11:03:11.768Z,18.00
2022-10-19T11:09:03.595Z,19.07
2022-10-19T11:14:51.498Z,16.07
2022-10-19T11:17:56.697Z,17.73
2022-10-19T11:23:58.905Z,23.13
2022-10-19T11:30:07.483Z,26.10
2022-10-19T11:33:08.418Z,22.67
2022-10-19T11:38:54.839Z,23.67
2022-10-19T11:44:37.670Z,19.17
2022-10-19T11:51:20.922Z,23.57
2022-10-19T11:57:03.326Z,20.77
2022-10-19T12:03:24.217Z,21.57
2022-10-19T12:09:12.701Z,16.87
2022-10-19T12:15:29.265Z,17.87
2022-10-19T12:21:13.121Z,23.53
2022-10-19T12:27:05.779Z,18.33
2022-10-19T12:32:59.733Z,18.43
2022-10-19T12:38:46.892Z,20.90
2022-10-19T12:42:03.239Z,17.30
2022-10-19T12:45:38.485Z,15.17
2022-10-19T12:51:20.513Z,15.90
2022-10-19T12:56:59.900Z,14.23
2022-10-19T13:03:15.556Z,15.23
2022-10-19T13:09:05.487Z,13.57
2022-10-19T13:15:39.913Z,12.50
2022-10-19T13:19:13.518Z,17.03
2022-10-19T13:22:29.088Z,14.50
2022-10-19T13:28:54.978Z,13.20
2022-10-19T13:34:33.769Z,10.87
2022-10-19T13:43:54.154Z,11.53
2022-10-19T13:47:03.955Z,12.77
2022-10-19T13:53:26.473Z,15.00
2022-10-19T13:57:04.317Z,11.50
2022-10-19T14:03:18.689Z,16.40
2022-10-19T14:06:22.273Z,13.17
2022-10-19T14:12:36.703Z,12.73
2022-10-19T14:15:51.222Z,16.83
2022-10-19T14:18:50.699Z,13.73
2022-10-19T14:21:52.835Z,10.33
2022-10-19T14:25:17.309Z,18.73
2022-10-19T14:31:20.935Z,18.40
2022-10-19T14:34:18.272Z,11.57
2022-10-19T14:37:11.013Z,14.83
2022-10-19T14:43:00.858Z,10.73
2022-10-19T14:46:13.525Z,14.50
2022-10-19T14:49:09.779Z,14.13
2022-10-19T14:52:10.201Z,10.97
2022-10-19T15:04:01.534Z,15.87
2022-10-19T15:10:05.082Z,12.13
2022-10-19T15:16:01.063Z,11.57
2022-10-19T15:21:44.523Z,16.10
2022-10-19T15:25:02.690Z,9.23
2022-10-19T15:28:07.409Z,12.33
2022-10-19T15:34:01.253Z,10.17
2022-10-19T15:39:49.568Z,11.00
2022-10-19T15:45:33.990Z,11.87
2022-10-19T15:48:56.343Z,7.13
2022-10-19T15:54:51.328Z,11.13
2022-10-19T16:01:13.830Z,10.10
2022-10-19T16:04:14.224Z,12.40
2022-10-19T16:07:20.648Z,15.63
2022-10-19T16:13:25.894Z,13.03
2022-10-19T16:19:04.472Z,17.90
2022-10-19T16:25:25.289Z,12.20
2022-10-19T16:31:27.449Z,15.77
2022-10-19T16:37:22.466Z,12.70
2022-10-19T16:43:13.191Z,14.73
2022-10-19T16:46:13.528Z,18.07
2022-10-19T17:03:30.580Z,13.83
2022-10-19T17:06:35.634Z,16.27
2022-10-19T17:09:42.202Z,17.17
2022-10-19T17:15:37.545Z,14.20
2022-10-19T17:21:06.399Z,23.57
2022-10-19T17:24:21.159Z,12.97
2022-10-19T17:30:27.442Z,14.23
2022-10-19T17:33:25.506Z,15.27
2022-10-19T17:42:29.709Z,13.80
2022-10-19T17:45:32.003Z,17.27
2022-10-19T17:48:44.416Z,14.07
2022-10-19T17:55:13.685Z,12.60
2022-10-19T18:04:31.629Z,15.13
2022-10-19T18:10:27.910Z,14.83
2022-10-19T18:13:46.671Z,15.03
2022-10-19T18:19:31.907Z,11.37
2022-10-19T18:25:21.755Z,14.97
2022-10-19T18:31:45.245Z,16.17
2022-10-19T18:34:39.432Z,13.73
2022-10-19T18:40:42.548Z,12.53
2022-10-19T18:46:56.670Z,15.87
2022-10-19T18:53:03.973Z,16.53
2022-10-19T19:00:09.732Z,14.67
2022-10-19T19:03:26.127Z,21.03
2022-10-19T19:10:15.862Z,18.23
2022-10-19T19:16:07.769Z,18.07
2022-10-19T19:19:27.300Z,14.83
2022-10-19T19:25:51.882Z,16.10
2022-10-19T19:31:42.047Z,17.03
2022-10-19T19:38:06.842Z,14.63
2022-10-19T19:43:43.611Z,20.13
2022-10-19T19:47:02.304Z,17.30
2022-10-19T19:53:15.676Z,16.17
2022-10-19T19:56:11.245Z,19.47
2022-10-19T20:02:54.170Z,18.47
2022-10-19T20:12:05.058Z,19.37
2022-10-19T20:14:59.520Z,15.47
2022-10-19T20:23:29.153Z,19.43
2022-10-19T20:29:27.615Z,21.37
2022-10-19T20:35:30.095Z,20.87
2022-10-19T20:38:45.749Z,21.27
2022-10-19T20:41:59.025Z,20.53
2022-10-19T20:51:31.721Z,17.53
2022-10-19T20:57:31.345Z,17.23
2022-10-19T21:00:25.963Z,18.63
2022-10-19T21:06:40.424Z,25.60
2022-10-19T21:12:36.441Z,16.37
2022-10-19T21:18:41.700Z,17.67
2022-10-19T21:21:48.655Z,16.47
2022-10-19T21:27:49.729Z,20.40
2022-10-19T21:31:03.169Z,18.57
2022-10-19T21:36:45.530Z,18.47
2022-10-19T21:39:36.900Z,21.73
2022-10-19T21:42:29.273Z,17.37
2022-10-19T21:48:03.956Z,21.17
2022-10-19T21:53:45.386Z,22.63
2022-10-19T21:59:52.453Z,21.13
2022-10-19T22:02:44.164Z,23.10
2022-10-19T22:09:06.274Z,24.50
2022-10-19T22:15:01.540Z,20.93
2022-10-19T22:20:49.498Z,19.03
2022-10-19T22:23:44.894Z,22.77
2022-10-19T22:26:46.938Z,22.53
2022-10-19T22:32:33.134Z,24.70
2022-10-19T22:35:25.936Z,24.53
2022-10-19T22:41:39.898Z,28.33
2022-10-19T22:45:21.196Z,29.87
2022-10-19T22:49:02.922Z,26.50
2022-10-19T22:52:44.797Z,23.00
2022-10-19T22:58:21.375Z,24.07
2022-10-19T23:04:01.996Z,26.53
2022-10-19T23:09:37.373Z,22.10
2022-10-19T23:12:27.827Z,23.03
2022-10-19T23:18:03.789Z,22.30
2022-10-19T23:20:55.968Z,23.70
2022-10-19T23:26:38.578Z,19.47
2022-10-19T23:32:15.517Z,24.03
2022-10-19T23:37:50.718Z,23.10
2022-10-19T23:43:25.796Z,24.40
2022-10-19T23:46:14.366Z,23.03
2022-10-19T23:51:55.127Z,22.80
2022-10-19T23:57:31.251Z,24.93
